sensor_id;sensor_type;location;lat;lon;timestamp;P1;durP1;ratioP1;P2;durP2;ratioP2
27333;SDS011;14817;57.104;-2.094;2023-04-15T00:01:10;12.63;;;4.85;;
27333;SDS011;14817;57.104;-2.094;2023-04-15T00:03:38;13.73;;;3.92;;
27333;SDS011;14817;57.104;-2.094;2023-04-15T00:06:05;12.32;;;4.50;;
27333;SDS011;14817;57.104;-2.094;2023-04-15T00:08:33;24.33;;;4.90;;
27333;SDS011;14817;57.104;-2.094;2023-04-15T00:10:59;19.35;;;5.32;;
27333;SDS011;14817;57.104;-2.094;2023-04-15T00:13:28;26.85;;;6.30;;
27333;SDS011;14817;57.104;-2.094;2023-04-15T00:15:55;20.98;;;5.93;;
27333;SDS011;14817;57.104;-2.094;2023-04-15T00:18:22;17.25;;;6.03;;
27333;SDS011;14817;57.104;-2.094;2023-04-15T00:20:49;17.17;;;6.20;;
27333;SDS011;14817;57.104;-2.094;2023-04-15T00:23:15;14.20;;;5.63;;
27333;SDS011;14817;57.104;-2.094;2023-04-15T00:25:42;13.75;;;5.40;;
27333;SDS011;14817;57.104;-2.094;2023-04-15T00:28:10;23.33;;;7.45;;
27333;SDS011;14817;57.104;-2.094;2023-04-15T00:30:37;18.90;;;5.68;;
27333;SDS011;14817;57.104;-2.094;2023-04-15T00:33:04;21.92;;;6.18;;
27333;SDS011;14817;57.104;-2.094;2023-04-15T00:35:31;17.13;;;5.05;;
27333;SDS011;14817;57.104;-2.094;2023-04-15T00:38:02;13.88;;;5.30;;
27333;SDS011;14817;57.104;-2.094;2023-04-15T00:40:30;21.52;;;7.60;;
27333;SDS011;14817;57.104;-2.094;2023-04-15T00:42:56;25.17;;;10.02;;
27333;SDS011;14817;57.104;-2.094;2023-04-15T00:45:23;16.63;;;6.78;;
27333;SDS011;14817;57.104;-2.094;2023-04-15T00:47:52;12.32;;;6.70;;
27333;SDS011;14817;57.104;-2.094;2023-04-15T00:50:19;16.98;;;6.68;;
27333;SDS011;14817;57.104;-2.094;2023-04-15T00:52:46;28.02;;;6.45;;
27333;SDS011;14817;57.104;-2.094;2023-04-15T00:55:13;26.17;;;8.45;;
27333;SDS011;14817;57.104;-2.094;2023-04-15T00:57:40;36.78;;;8.27;;
27333;SDS011;14817;57.104;-2.094;2023-04-15T01:00:08;19.10;;;6.95;;
27333;SDS011;14817;57.104;-2.094;2023-04-15T01:02:36;16.63;;;7.68;;
27333;SDS011;14817;57.104;-2.094;2023-04-15T01:05:03;26.40;;;8.65;;
27333;SDS011;14817;57.104;-2.094;2023-04-15T01:07:30;32.92;;;8.63;;
27333;SDS011;14817;57.104;-2.094;2023-04-15T01:09:57;41.80;;;9.00;;
27333;SDS011;14817;57.104;-2.094;2023-04-15T01:12:24;24.85;;;7.22;;
27333;SDS011;14817;57.104;-2.094;2023-04-15T01:14:52;31.92;;;7.65;;
27333;SDS011;14817;57.104;-2.094;2023-04-15T01:17:19;50.28;;;9.52;;
27333;SDS011;14817;57.104;-2.094;2023-04-15T01:19:46;24.08;;;8.63;;
27333;SDS011;14817;57.104;-2.094;2023-04-15T01:22:13;24.08;;;8.90;;
27333;SDS011;14817;57.104;-2.094;2023-04-15T01:24:40;20.58;;;7.65;;
27333;SDS011;14817;57.104;-2.094;2023-04-15T01:27:07;23.92;;;6.55;;
27333;SDS011;14817;57.104;-2.094;2023-04-15T01:29:36;36.72;;;7.82;;
27333;SDS011;14817;57.104;-2.094;2023-04-15T01:32:04;23.35;;;8.10;;
27333;SDS011;14817;57.104;-2.094;2023-04-15T01:34:31;19.80;;;6.72;;
27333;SDS011;14817;57.104;-2.094;2023-04-15T01:37:00;67.15;;;10.93;;
27333;SDS011;14817;57.104;-2.094;2023-04-15T01:39:27;95.45;;;10.45;;
27333;SDS011;14817;57.104;-2.094;2023-04-15T01:41:55;24.13;;;5.50;;
27333;SDS011;14817;57.104;-2.094;2023-04-15T01:44:23;30.40;;;5.88;;
27333;SDS011;14817;57.104;-2.094;2023-04-15T01:46:51;43.03;;;7.47;;
27333;SDS011;14817;57.104;-2.094;2023-04-15T01:49:18;27.00;;;6.35;;
27333;SDS011;14817;57.104;-2.094;2023-04-15T01:51:45;37.97;;;7.03;;
27333;SDS011;14817;57.104;-2.094;2023-04-15T01:54:12;31.15;;;6.88;;
27333;SDS011;14817;57.104;-2.094;2023-04-15T01:56:38;26.70;;;6.13;;
27333;SDS011;14817;57.104;-2.094;2023-04-15T01:59:05;15.85;;;6.43;;
27333;SDS011;14817;57.104;-2.094;2023-04-15T02:01:31;22.63;;;7.60;;
27333;SDS011;14817;57.104;-2.094;2023-04-15T02:03:59;28.35;;;6.28;;
27333;SDS011;14817;57.104;-2.094;2023-04-15T02:06:26;13.20;;;6.18;;
27333;SDS011;14817;57.104;-2.094;2023-04-15T02:08:54;17.65;;;6.63;;
27333;SDS011;14817;57.104;-2.094;2023-04-15T02:11:20;16.73;;;7.25;;
27333;SDS011;14817;57.104;-2.094;2023-04-15T02:13:48;20.67;;;8.23;;
27333;SDS011;14817;57.104;-2.094;2023-04-15T02:16:17;21.13;;;8.25;;
27333;SDS011;14817;57.104;-2.094;2023-04-15T02:18:44;22.35;;;9.27;;
27333;SDS011;14817;57.104;-2.094;2023-04-15T02:21:11;25.38;;;8.55;;
27333;SDS011;14817;57.104;-2.094;2023-04-15T02:23:38;19.90;;;9.20;;
27333;SDS011;14817;57.104;-2.094;2023-04-15T02:26:04;21.15;;;8.75;;
27333;SDS011;14817;57.104;-2.094;2023-04-15T02:28:31;26.10;;;9.98;;
27333;SDS011;14817;57.104;-2.094;2023-04-15T02:30:57;16.33;;;8.00;;
27333;SDS011;14817;57.104;-2.094;2023-04-15T02:33:25;32.28;;;10.30;;
27333;SDS011;14817;57.104;-2.094;2023-04-15T02:35:51;30.85;;;10.75;;
27333;SDS011;14817;57.104;-2.094;2023-04-15T02:38:18;19.20;;;8.85;;
27333;SDS011;14817;57.104;-2.094;2023-04-15T02:40:45;21.75;;;8.68;;
27333;SDS011;14817;57.104;-2.094;2023-04-15T02:43:15;27.73;;;11.15;;
27333;SDS011;14817;57.104;-2.094;2023-04-15T02:45:42;52.95;;;10.02;;
27333;SDS011;14817;57.104;-2.094;2023-04-15T02:48:09;19.33;;;8.05;;
27333;SDS011;14817;57.104;-2.094;2023-04-15T02:50:36;62.65;;;10.73;;
27333;SDS011;14817;57.104;-2.094;2023-04-15T02:53:08;26.58;;;8.40;;
27333;SDS011;14817;57.104;-2.094;2023-04-15T02:55:35;35.42;;;8.65;;
27333;SDS011;14817;57.104;-2.094;2023-04-15T02:58:01;76.97;;;10.55;;
27333;SDS011;14817;57.104;-2.094;2023-04-15T03:00:28;43.95;;;8.35;;
27333;SDS011;14817;57.104;-2.094;2023-04-15T03:03:01;13.02;;;5.47;;
27333;SDS011;14817;57.104;-2.094;2023-04-15T03:05:29;18.42;;;6.35;;
27333;SDS011;14817;57.104;-2.094;2023-04-15T03:07:56;38.45;;;8.48;;
27333;SDS011;14817;57.104;-2.094;2023-04-15T03:10:22;33.88;;;7.53;;
27333;SDS011;14817;57.104;-2.094;2023-04-15T03:12:49;43.63;;;8.52;;
27333;SDS011;14817;57.104;-2.094;2023-04-15T03:15:18;17.77;;;5.72;;
27333;SDS011;14817;57.104;-2.094;2023-04-15T03:17:48;24.60;;;7.57;;
27333;SDS011;14817;57.104;-2.094;2023-04-15T03:20:15;16.77;;;7.18;;
27333;SDS011;14817;57.104;-2.094;2023-04-15T03:22:42;26.13;;;8.07;;
27333;SDS011;14817;57.104;-2.094;2023-04-15T03:25:09;31.58;;;8.05;;
27333;SDS011;14817;57.104;-2.094;2023-04-15T03:27:37;18.23;;;6.82;;
27333;SDS011;14817;57.104;-2.094;2023-04-15T03:30:04;31.88;;;8.27;;
27333;SDS011;14817;57.104;-2.094;2023-04-15T03:32:35;12.25;;;5.93;;
27333;SDS011;14817;57.104;-2.094;2023-04-15T03:35:01;17.58;;;7.15;;
27333;SDS011;14817;57.104;-2.094;2023-04-15T03:37:28;16.75;;;7.15;;
27333;SDS011;14817;57.104;-2.094;2023-04-15T03:39:54;22.00;;;7.13;;
27333;SDS011;14817;57.104;-2.094;2023-04-15T03:42:23;34.10;;;8.40;;
27333;SDS011;14817;57.104;-2.094;2023-04-15T03:44:49;31.92;;;8.52;;
27333;SDS011;14817;57.104;-2.094;2023-04-15T03:47:16;33.25;;;9.77;;
27333;SDS011;14817;57.104;-2.094;2023-04-15T03:49:42;16.52;;;7.90;;
27333;SDS011;14817;57.104;-2.094;2023-04-15T03:52:09;17.40;;;8.15;;
27333;SDS011;14817;57.104;-2.094;2023-04-15T03:54:35;36.65;;;9.15;;
27333;SDS011;14817;57.104;-2.094;2023-04-15T03:57:02;40.90;;;9.88;;
27333;SDS011;14817;57.104;-2.094;2023-04-15T03:59:28;15.48;;;7.75;;
27333;SDS011;14817;57.104;-2.094;2023-04-15T04:01:55;15.65;;;7.00;;
27333;SDS011;14817;57.104;-2.094;2023-04-15T04:04:22;24.27;;;9.77;;
27333;SDS011;14817;57.104;-2.094;2023-04-15T04:06:51;28.55;;;8.82;;
27333;SDS011;14817;57.104;-2.094;2023-04-15T04:09:18;36.50;;;9.27;;
27333;SDS011;14817;57.104;-2.094;2023-04-15T04:11:44;29.98;;;10.10;;
27333;SDS011;14817;57.104;-2.094;2023-04-15T04:14:11;18.75;;;8.85;;
27333;SDS011;14817;57.104;-2.094;2023-04-15T04:16:38;41.17;;;10.75;;
27333;SDS011;14817;57.104;-2.094;2023-04-15T04:19:04;20.23;;;10.90;;
27333;SDS011;14817;57.104;-2.094;2023-04-15T04:21:31;39.10;;;12.98;;
27333;SDS011;14817;57.104;-2.094;2023-04-15T04:23:59;49.05;;;13.65;;
27333;SDS011;14817;57.104;-2.094;2023-04-15T04:26:26;113.95;;;22.08;;
27333;SDS011;14817;57.104;-2.094;2023-04-15T04:28:52;54.80;;;18.77;;
27333;SDS011;14817;57.104;-2.094;2023-04-15T04:31:19;34.65;;;15.30;;
27333;SDS011;14817;57.104;-2.094;2023-04-15T04:33:46;116.82;;;30.15;;
27333;SDS011;14817;57.104;-2.094;2023-04-15T04:36:12;95.63;;;28.58;;
27333;SDS011;14817;57.104;-2.094;2023-04-15T04:38:39;111.10;;;33.03;;
27333;SDS011;14817;57.104;-2.094;2023-04-15T04:41:06;76.85;;;26.70;;
27333;SDS011;14817;57.104;-2.094;2023-04-15T04:43:32;130.50;;;32.10;;
27333;SDS011;14817;57.104;-2.094;2023-04-15T04:45:59;176.38;;;32.70;;
27333;SDS011;14817;57.104;-2.094;2023-04-15T04:48:26;82.55;;;21.98;;
27333;SDS011;14817;57.104;-2.094;2023-04-15T04:50:52;143.13;;;29.10;;
27333;SDS011;14817;57.104;-2.094;2023-04-15T04:53:19;89.70;;;25.33;;
27333;SDS011;14817;57.104;-2.094;2023-04-15T04:55:45;172.10;;;33.97;;
27333;SDS011;14817;57.104;-2.094;2023-04-15T04:58:12;99.03;;;20.80;;
27333;SDS011;14817;57.104;-2.094;2023-04-15T05:00:39;140.55;;;19.35;;
27333;SDS011;14817;57.104;-2.094;2023-04-15T05:03:06;152.10;;;22.80;;
27333;SDS011;14817;57.104;-2.094;2023-04-15T05:05:33;223.20;;;28.35;;
27333;SDS011;14817;57.104;-2.094;2023-04-15T05:08:01;216.52;;;29.88;;
27333;SDS011;14817;57.104;-2.094;2023-04-15T05:10:28;67.95;;;15.95;;
27333;SDS011;14817;57.104;-2.094;2023-04-15T05:12:56;121.68;;;18.65;;
27333;SDS011;14817;57.104;-2.094;2023-04-15T05:15:22;63.30;;;14.75;;
27333;SDS011;14817;57.104;-2.094;2023-04-15T05:17:49;191.98;;;29.23;;
27333;SDS011;14817;57.104;-2.094;2023-04-15T05:20:18;247.45;;;31.77;;
27333;SDS011;14817;57.104;-2.094;2023-04-15T05:22:45;121.82;;;19.98;;
27333;SDS011;14817;57.104;-2.094;2023-04-15T05:25:12;102.10;;;13.52;;
27333;SDS011;14817;57.104;-2.094;2023-04-15T05:27:39;188.02;;;15.02;;
27333;SDS011;14817;57.104;-2.094;2023-04-15T05:30:06;100.75;;;11.50;;
27333;SDS011;14817;57.104;-2.094;2023-04-15T05:32:32;72.28;;;9.30;;
27333;SDS011;14817;57.104;-2.094;2023-04-15T05:34:59;120.75;;;10.98;;
27333;SDS011;14817;57.104;-2.094;2023-04-15T05:37:25;131.23;;;9.65;;
27333;SDS011;14817;57.104;-2.094;2023-04-15T05:39:52;40.38;;;5.47;;
27333;SDS011;14817;57.104;-2.094;2023-04-15T05:42:19;94.10;;;7.57;;
27333;SDS011;14817;57.104;-2.094;2023-04-15T05:44:45;69.60;;;6.93;;
27333;SDS011;14817;57.104;-2.094;2023-04-15T05:47:12;83.68;;;6.30;;
27333;SDS011;14817;57.104;-2.094;2023-04-15T05:49:38;60.05;;;5.68;;
27333;SDS011;14817;57.104;-2.094;2023-04-15T05:52:05;69.63;;;6.50;;
27333;SDS011;14817;57.104;-2.094;2023-04-15T05:54:32;54.70;;;4.90;;
27333;SDS011;14817;57.104;-2.094;2023-04-15T05:56:58;113.93;;;7.95;;
27333;SDS011;14817;57.104;-2.094;2023-04-15T05:59:26;29.38;;;3.38;;
27333;SDS011;14817;57.104;-2.094;2023-04-15T06:01:53;59.17;;;5.22;;
27333;SDS011;14817;57.104;-2.094;2023-04-15T06:04:20;57.40;;;4.20;;
27333;SDS011;14817;57.104;-2.094;2023-04-15T06:06:47;15.05;;;2.50;;
27333;SDS011;14817;57.104;-2.094;2023-04-15T06:09:14;11.27;;;3.10;;
27333;SDS011;14817;57.104;-2.094;2023-04-15T06:11:40;21.88;;;3.53;;
27333;SDS011;14817;57.104;-2.094;2023-04-15T06:14:07;12.13;;;2.65;;
27333;SDS011;14817;57.104;-2.094;2023-04-15T06:16:33;18.35;;;3.40;;
27333;SDS011;14817;57.104;-2.094;2023-04-15T06:19:04;7.60;;;1.73;;
27333;SDS011;14817;57.104;-2.094;2023-04-15T06:21:31;5.55;;;1.77;;
27333;SDS011;14817;57.104;-2.094;2023-04-15T06:23:58;12.23;;;2.22;;
27333;SDS011;14817;57.104;-2.094;2023-04-15T06:26:26;3.55;;;2.00;;
27333;SDS011;14817;57.104;-2.094;2023-04-15T06:28:53;2.80;;;1.25;;
27333;SDS011;14817;57.104;-2.094;2023-04-15T06:31:20;2.38;;;1.77;;
27333;SDS011;14817;57.104;-2.094;2023-04-15T06:33:47;2.55;;;1.45;;
27333;SDS011;14817;57.104;-2.094;2023-04-15T06:36:13;4.10;;;1.23;;
27333;SDS011;14817;57.104;-2.094;2023-04-15T06:38:40;5.57;;;1.35;;
27333;SDS011;14817;57.104;-2.094;2023-04-15T06:41:07;2.45;;;1.30;;
27333;SDS011;14817;57.104;-2.094;2023-04-15T06:43:33;2.92;;;1.48;;
27333;SDS011;14817;57.104;-2.094;2023-04-15T06:46:00;1.35;;;0.93;;
27333;SDS011;14817;57.104;-2.094;2023-04-15T06:48:27;2.03;;;1.15;;
27333;SDS011;14817;57.104;-2.094;2023-04-15T06:50:54;1.52;;;1.20;;
27333;SDS011;14817;57.104;-2.094;2023-04-15T06:53:20;2.42;;;1.20;;
27333;SDS011;14817;57.104;-2.094;2023-04-15T06:55:48;2.05;;;1.40;;
27333;SDS011;14817;57.104;-2.094;2023-04-15T06:58:14;0.98;;;0.80;;
27333;SDS011;14817;57.104;-2.094;2023-04-15T07:00:41;2.22;;;1.52;;
27333;SDS011;14817;57.104;-2.094;2023-04-15T07:03:08;1.70;;;0.93;;
27333;SDS011;14817;57.104;-2.094;2023-04-15T07:05:36;2.38;;;0.90;;
27333;SDS011;14817;57.104;-2.094;2023-04-15T07:08:03;0.93;;;0.63;;
27333;SDS011;14817;57.104;-2.094;2023-04-15T07:10:30;2.45;;;0.75;;
27333;SDS011;14817;57.104;-2.094;2023-04-15T07:12:57;1.83;;;0.90;;
27333;SDS011;14817;57.104;-2.094;2023-04-15T07:15:23;2.10;;;0.77;;
27333;SDS011;14817;57.104;-2.094;2023-04-15T07:17:50;1.13;;;0.60;;
27333;SDS011;14817;57.104;-2.094;2023-04-15T07:20:17;1.67;;;0.70;;
27333;SDS011;14817;57.104;-2.094;2023-04-15T07:22:43;1.75;;;1.13;;
27333;SDS011;14817;57.104;-2.094;2023-04-15T07:25:10;1.35;;;0.70;;
27333;SDS011;14817;57.104;-2.094;2023-04-15T07:27:37;1.35;;;0.65;;
27333;SDS011;14817;57.104;-2.094;2023-04-15T07:30:04;0.95;;;0.90;;
27333;SDS011;14817;57.104;-2.094;2023-04-15T07:32:30;6.95;;;3.25;;
27333;SDS011;14817;57.104;-2.094;2023-04-15T07:34:57;4.65;;;2.90;;
27333;SDS011;14817;57.104;-2.094;2023-04-15T07:37:24;7.05;;;2.97;;
27333;SDS011;14817;57.104;-2.094;2023-04-15T07:39:50;7.07;;;2.95;;
27333;SDS011;14817;57.104;-2.094;2023-04-15T07:42:18;5.78;;;2.63;;
27333;SDS011;14817;57.104;-2.094;2023-04-15T07:44:45;9.35;;;2.67;;
27333;SDS011;14817;57.104;-2.094;2023-04-15T07:47:11;10.57;;;3.00;;
27333;SDS011;14817;57.104;-2.094;2023-04-15T07:49:38;5.00;;;2.40;;
27333;SDS011;14817;57.104;-2.094;2023-04-15T07:52:07;5.75;;;2.28;;
27333;SDS011;14817;57.104;-2.094;2023-04-15T07:54:34;7.40;;;2.15;;
27333;SDS011;14817;57.104;-2.094;2023-04-15T07:57:01;4.78;;;2.10;;
27333;SDS011;14817;57.104;-2.094;2023-04-15T07:59:28;6.55;;;2.53;;
27333;SDS011;14817;57.104;-2.094;2023-04-15T08:01:56;7.57;;;2.75;;
27333;SDS011;14817;57.104;-2.094;2023-04-15T08:04:23;6.28;;;2.00;;
27333;SDS011;14817;57.104;-2.094;2023-04-15T08:06:50;7.40;;;3.00;;
27333;SDS011;14817;57.104;-2.094;2023-04-15T08:09:17;7.25;;;2.65;;
27333;SDS011;14817;57.104;-2.094;2023-04-15T08:11:45;10.77;;;2.70;;
27333;SDS011;14817;57.104;-2.094;2023-04-15T08:14:12;7.15;;;2.60;;
27333;SDS011;14817;57.104;-2.094;2023-04-15T08:16:38;6.50;;;2.67;;
27333;SDS011;14817;57.104;-2.094;2023-04-15T08:19:05;4.65;;;2.72;;
27333;SDS011;14817;57.104;-2.094;2023-04-15T08:21:31;8.95;;;3.67;;
27333;SDS011;14817;57.104;-2.094;2023-04-15T08:23:58;9.25;;;3.88;;
27333;SDS011;14817;57.104;-2.094;2023-04-15T08:26:25;5.38;;;2.67;;
27333;SDS011;14817;57.104;-2.094;2023-04-15T08:28:52;6.35;;;3.35;;
27333;SDS011;14817;57.104;-2.094;2023-04-15T08:31:20;6.88;;;3.40;;
27333;SDS011;14817;57.104;-2.094;2023-04-15T08:33:47;5.63;;;3.20;;
27333;SDS011;14817;57.104;-2.094;2023-04-15T08:36:14;8.02;;;3.78;;
27333;SDS011;14817;57.104;-2.094;2023-04-15T08:38:40;5.88;;;2.97;;
27333;SDS011;14817;57.104;-2.094;2023-04-15T08:41:19;5.57;;;2.65;;
27333;SDS011;14817;57.104;-2.094;2023-04-15T08:44:06;5.50;;;2.43;;
27333;SDS011;14817;57.104;-2.094;2023-04-15T08:46:32;6.43;;;2.40;;
27333;SDS011;14817;57.104;-2.094;2023-04-15T08:49:02;6.70;;;2.47;;
27333;SDS011;14817;57.104;-2.094;2023-04-15T08:51:30;8.45;;;2.88;;
27333;SDS011;14817;57.104;-2.094;2023-04-15T08:53:57;8.98;;;2.20;;
27333;SDS011;14817;57.104;-2.094;2023-04-15T08:56:24;8.20;;;1.92;;
27333;SDS011;14817;57.104;-2.094;2023-04-15T08:58:54;8.93;;;2.40;;
27333;SDS011;14817;57.104;-2.094;2023-04-15T09:01:21;4.57;;;1.92;;
27333;SDS011;14817;57.104;-2.094;2023-04-15T09:03:48;7.88;;;2.67;;
27333;SDS011;14817;57.104;-2.094;2023-04-15T09:06:16;8.05;;;1.77;;
27333;SDS011;14817;57.104;-2.094;2023-04-15T09:08:43;6.07;;;2.00;;
27333;SDS011;14817;57.104;-2.094;2023-04-15T09:11:10;4.50;;;1.80;;
27333;SDS011;14817;57.104;-2.094;2023-04-15T09:13:36;5.97;;;2.03;;
27333;SDS011;14817;57.104;-2.094;2023-04-15T09:16:06;5.63;;;2.08;;
27333;SDS011;14817;57.104;-2.094;2023-04-15T09:18:34;8.77;;;1.83;;
27333;SDS011;14817;57.104;-2.094;2023-04-15T09:21:08;5.80;;;1.88;;
27333;SDS011;14817;57.104;-2.094;2023-04-15T09:23:37;6.45;;;1.65;;
27333;SDS011;14817;57.104;-2.094;2023-04-15T09:26:03;6.60;;;1.98;;
27333;SDS011;14817;57.104;-2.094;2023-04-15T09:28:30;4.97;;;2.10;;
27333;SDS011;14817;57.104;-2.094;2023-04-15T09:30:58;6.32;;;2.55;;
27333;SDS011;14817;57.104;-2.094;2023-04-15T09:33:25;6.60;;;2.10;;
27333;SDS011;14817;57.104;-2.094;2023-04-15T09:35:55;6.82;;;2.33;;
27333;SDS011;14817;57.104;-2.094;2023-04-15T09:38:22;6.43;;;1.98;;
27333;SDS011;14817;57.104;-2.094;2023-04-15T09:40:49;7.88;;;2.88;;
27333;SDS011;14817;57.104;-2.094;2023-04-15T09:43:15;5.82;;;2.78;;
27333;SDS011;14817;57.104;-2.094;2023-04-15T09:45:47;8.38;;;2.97;;
27333;SDS011;14817;57.104;-2.094;2023-04-15T09:50:44;5.25;;;1.98;;
27333;SDS011;14817;57.104;-2.094;2023-04-15T09:53:10;5.63;;;2.58;;
27333;SDS011;14817;57.104;-2.094;2023-04-15T09:55:44;8.20;;;2.45;;
27333;SDS011;14817;57.104;-2.094;2023-04-15T09:58:18;5.57;;;2.37;;
27333;SDS011;14817;57.104;-2.094;2023-04-15T10:00:46;7.28;;;2.92;;
27333;SDS011;14817;57.104;-2.094;2023-04-15T10:03:13;6.03;;;2.35;;
27333;SDS011;14817;57.104;-2.094;2023-04-15T10:05:41;6.45;;;2.30;;
27333;SDS011;14817;57.104;-2.094;2023-04-15T10:08:07;5.15;;;2.15;;
27333;SDS011;14817;57.104;-2.094;2023-04-15T10:10:34;7.57;;;2.50;;
27333;SDS011;14817;57.104;-2.094;2023-04-15T10:13:01;6.57;;;2.30;;
27333;SDS011;14817;57.104;-2.094;2023-04-15T10:15:28;6.25;;;2.63;;
27333;SDS011;14817;57.104;-2.094;2023-04-15T10:17:55;7.10;;;2.05;;
27333;SDS011;14817;57.104;-2.094;2023-04-15T10:20:23;7.07;;;3.10;;
27333;SDS011;14817;57.104;-2.094;2023-04-15T10:22:49;8.32;;;2.90;;
27333;SDS011;14817;57.104;-2.094;2023-04-15T10:25:16;7.28;;;2.67;;
27333;SDS011;14817;57.104;-2.094;2023-04-15T10:27:43;4.95;;;1.80;;
27333;SDS011;14817;57.104;-2.094;2023-04-15T10:30:10;5.90;;;2.47;;
27333;SDS011;14817;57.104;-2.094;2023-04-15T10:32:37;8.57;;;2.60;;
27333;SDS011;14817;57.104;-2.094;2023-04-15T10:35:04;5.45;;;2.67;;
27333;SDS011;14817;57.104;-2.094;2023-04-15T10:37:32;5.75;;;2.53;;
27333;SDS011;14817;57.104;-2.094;2023-04-15T10:39:59;9.35;;;2.45;;
27333;SDS011;14817;57.104;-2.094;2023-04-15T10:42:32;7.68;;;2.55;;
27333;SDS011;14817;57.104;-2.094;2023-04-15T10:44:59;6.60;;;2.00;;
27333;SDS011;14817;57.104;-2.094;2023-04-15T10:47:25;6.80;;;1.90;;
27333;SDS011;14817;57.104;-2.094;2023-04-15T10:49:59;8.30;;;2.10;;
27333;SDS011;14817;57.104;-2.094;2023-04-15T10:52:27;3.97;;;2.40;;
27333;SDS011;14817;57.104;-2.094;2023-04-15T10:55:11;7.22;;;2.17;;
27333;SDS011;14817;57.104;-2.094;2023-04-15T10:57:39;5.18;;;2.17;;
27333;SDS011;14817;57.104;-2.094;2023-04-15T11:05:07;6.22;;;1.75;;
27333;SDS011;14817;57.104;-2.094;2023-04-15T11:12:39;10.23;;;2.28;;
27333;SDS011;14817;57.104;-2.094;2023-04-15T11:17:52;3.65;;;1.80;;
27333;SDS011;14817;57.104;-2.094;2023-04-15T11:20:19;5.60;;;1.77;;
27333;SDS011;14817;57.104;-2.094;2023-04-15T11:22:49;4.97;;;1.92;;
27333;SDS011;14817;57.104;-2.094;2023-04-15T11:25:34;8.02;;;1.85;;
27333;SDS011;14817;57.104;-2.094;2023-04-15T11:28:01;5.10;;;1.70;;
27333;SDS011;14817;57.104;-2.094;2023-04-15T11:30:29;5.15;;;1.70;;
27333;SDS011;14817;57.104;-2.094;2023-04-15T11:33:10;6.60;;;2.20;;
27333;SDS011;14817;57.104;-2.094;2023-04-15T11:35:40;4.15;;;1.27;;
27333;SDS011;14817;57.104;-2.094;2023-04-15T11:38:08;9.38;;;3.03;;
27333;SDS011;14817;57.104;-2.094;2023-04-15T11:40:40;10.88;;;2.83;;
27333;SDS011;14817;57.104;-2.094;2023-04-15T11:43:13;9.20;;;1.98;;
27333;SDS011;14817;57.104;-2.094;2023-04-15T11:48:22;7.72;;;1.73;;
27333;SDS011;14817;57.104;-2.094;2023-04-15T11:50:59;5.13;;;1.50;;
27333;SDS011;14817;57.104;-2.094;2023-04-15T11:53:43;6.93;;;1.65;;
27333;SDS011;14817;57.104;-2.094;2023-04-15T11:56:18;7.70;;;2.03;;
27333;SDS011;14817;57.104;-2.094;2023-04-15T11:58:52;8.32;;;1.88;;
27333;SDS011;14817;57.104;-2.094;2023-04-15T12:01:32;4.82;;;1.33;;
27333;SDS011;14817;57.104;-2.094;2023-04-15T12:06:40;8.68;;;1.90;;
27333;SDS011;14817;57.104;-2.094;2023-04-15T12:09:07;4.32;;;1.50;;
27333;SDS011;14817;57.104;-2.094;2023-04-15T12:11:41;6.28;;;1.67;;
27333;SDS011;14817;57.104;-2.094;2023-04-15T12:16:59;10.65;;;1.75;;
27333;SDS011;14817;57.104;-2.094;2023-04-15T12:19:39;7.15;;;1.85;;
27333;SDS011;14817;57.104;-2.094;2023-04-15T12:24:46;8.73;;;2.15;;
27333;SDS011;14817;57.104;-2.094;2023-04-15T12:27:15;7.57;;;1.92;;
27333;SDS011;14817;57.104;-2.094;2023-04-15T12:29:42;8.57;;;1.95;;
27333;SDS011;14817;57.104;-2.094;2023-04-15T12:32:10;13.18;;;2.75;;
27333;SDS011;14817;57.104;-2.094;2023-04-15T12:34:39;6.05;;;1.48;;
27333;SDS011;14817;57.104;-2.094;2023-04-15T12:37:07;10.25;;;1.80;;
27333;SDS011;14817;57.104;-2.094;2023-04-15T12:39:37;8.85;;;1.63;;
27333;SDS011;14817;57.104;-2.094;2023-04-15T12:42:04;6.25;;;2.40;;
27333;SDS011;14817;57.104;-2.094;2023-04-15T12:44:32;10.35;;;2.70;;
27333;SDS011;14817;57.104;-2.094;2023-04-15T12:46:59;7.75;;;2.08;;
27333;SDS011;14817;57.104;-2.094;2023-04-15T12:49:26;5.47;;;1.77;;
27333;SDS011;14817;57.104;-2.094;2023-04-15T12:51:54;9.55;;;2.00;;
27333;SDS011;14817;57.104;-2.094;2023-04-15T12:54:22;8.93;;;2.22;;
27333;SDS011;14817;57.104;-2.094;2023-04-15T12:56:49;11.43;;;2.03;;
27333;SDS011;14817;57.104;-2.094;2023-04-15T12:59:16;9.90;;;1.63;;
27333;SDS011;14817;57.104;-2.094;2023-04-15T13:01:44;12.80;;;2.10;;
27333;SDS011;14817;57.104;-2.094;2023-04-15T13:04:12;6.85;;;1.75;;
27333;SDS011;14817;57.104;-2.094;2023-04-15T13:06:39;8.75;;;1.95;;
27333;SDS011;14817;57.104;-2.094;2023-04-15T13:09:06;6.90;;;1.50;;
27333;SDS011;14817;57.104;-2.094;2023-04-15T13:11:33;12.80;;;2.25;;
27333;SDS011;14817;57.104;-2.094;2023-04-15T13:14:01;4.47;;;1.70;;
27333;SDS011;14817;57.104;-2.094;2023-04-15T13:16:29;6.03;;;2.10;;
27333;SDS011;14817;57.104;-2.094;2023-04-15T13:19:00;6.22;;;1.80;;
27333;SDS011;14817;57.104;-2.094;2023-04-15T13:21:29;6.85;;;2.33;;
27333;SDS011;14817;57.104;-2.094;2023-04-15T13:24:00;15.75;;;2.90;;
27333;SDS011;14817;57.104;-2.094;2023-04-15T13:26:27;9.73;;;2.17;;
27333;SDS011;14817;57.104;-2.094;2023-04-15T13:28:54;7.68;;;1.73;;
27333;SDS011;14817;57.104;-2.094;2023-04-15T13:31:21;8.20;;;2.47;;
27333;SDS011;14817;57.104;-2.094;2023-04-15T13:33:48;6.53;;;2.15;;
27333;SDS011;14817;57.104;-2.094;2023-04-15T13:36:15;3.70;;;1.70;;
27333;SDS011;14817;57.104;-2.094;2023-04-15T13:38:42;7.07;;;1.70;;
27333;SDS011;14817;57.104;-2.094;2023-04-15T13:41:08;5.25;;;1.92;;
27333;SDS011;14817;57.104;-2.094;2023-04-15T13:43:35;6.57;;;1.60;;
27333;SDS011;14817;57.104;-2.094;2023-04-15T13:46:04;8.43;;;2.17;;
27333;SDS011;14817;57.104;-2.094;2023-04-15T13:48:31;10.93;;;1.83;;
27333;SDS011;14817;57.104;-2.094;2023-04-15T13:50:58;7.68;;;1.83;;
27333;SDS011;14817;57.104;-2.094;2023-04-15T13:53:25;6.95;;;2.05;;
27333;SDS011;14817;57.104;-2.094;2023-04-15T13:56:04;7.88;;;1.92;;
27333;SDS011;14817;57.104;-2.094;2023-04-15T13:58:35;5.60;;;1.67;;
27333;SDS011;14817;57.104;-2.094;2023-04-15T14:01:03;5.95;;;1.98;;
27333;SDS011;14817;57.104;-2.094;2023-04-15T14:03:35;9.27;;;2.20;;
27333;SDS011;14817;57.104;-2.094;2023-04-15T14:06:06;4.95;;;1.35;;
27333;SDS011;14817;57.104;-2.094;2023-04-15T14:08:34;4.90;;;1.50;;
27333;SDS011;14817;57.104;-2.094;2023-04-15T14:11:01;5.13;;;1.65;;
27333;SDS011;14817;57.104;-2.094;2023-04-15T14:13:28;7.30;;;1.60;;
27333;SDS011;14817;57.104;-2.094;2023-04-15T14:15:58;5.20;;;1.70;;
27333;SDS011;14817;57.104;-2.094;2023-04-15T14:18:25;8.27;;;1.30;;
27333;SDS011;14817;57.104;-2.094;2023-04-15T14:20:51;10.98;;;2.08;;
27333;SDS011;14817;57.104;-2.094;2023-04-15T14:23:19;10.05;;;1.88;;
27333;SDS011;14817;57.104;-2.094;2023-04-15T14:25:45;9.65;;;2.10;;
27333;SDS011;14817;57.104;-2.094;2023-04-15T14:28:13;8.43;;;1.45;;
27333;SDS011;14817;57.104;-2.094;2023-04-15T14:30:40;5.78;;;1.65;;
27333;SDS011;14817;57.104;-2.094;2023-04-15T14:33:07;6.85;;;1.98;;
27333;SDS011;14817;57.104;-2.094;2023-04-15T14:35:35;7.25;;;2.55;;
27333;SDS011;14817;57.104;-2.094;2023-04-15T14:38:03;4.72;;;1.77;;
27333;SDS011;14817;57.104;-2.094;2023-04-15T14:40:32;8.85;;;1.85;;
27333;SDS011;14817;57.104;-2.094;2023-04-15T14:42:59;6.07;;;1.45;;
27333;SDS011;14817;57.104;-2.094;2023-04-15T14:45:30;7.88;;;1.77;;
27333;SDS011;14817;57.104;-2.094;2023-04-15T14:47:57;5.80;;;1.60;;
27333;SDS011;14817;57.104;-2.094;2023-04-15T14:50:24;6.20;;;1.48;;
27333;SDS011;14817;57.104;-2.094;2023-04-15T14:52:51;3.38;;;1.42;;
27333;SDS011;14817;57.104;-2.094;2023-04-15T14:55:18;7.72;;;1.73;;